createdAt,value
2023-05-08T00:00:10.677Z,14.60
2023-05-08T00:02:37.684Z,14.60
2023-05-08T00:05:04.902Z,14.50
2023-05-08T00:07:31.800Z,14.50
2023-05-08T00:09:58.512Z,14.60
2023-05-08T00:12:25.215Z,14.60
2023-05-08T00:14:51.966Z,14.80
2023-05-08T00:17:18.728Z,14.90
2023-05-08T00:19:45.464Z,14.80
2023-05-08T00:22:12.174Z,14.90
2023-05-08T00:24:38.887Z,15.00
2023-05-08T00:27:05.822Z,15.00
2023-05-08T00:29:32.502Z,15.00
2023-05-08T00:31:59.481Z,15.00
2023-05-08T00:34:26.206Z,15.10
2023-05-08T00:36:53.060Z,15.00
2023-05-08T00:39:19.771Z,15.00
2023-05-08T00:41:46.570Z,15.10
2023-05-08T00:44:13.420Z,15.10
2023-05-08T00:46:41.993Z,15.10
2023-05-08T00:49:14.366Z,15.00
2023-05-08T00:51:43.254Z,15.10
2023-05-08T00:54:10.716Z,15.00
2023-05-08T00:56:38.265Z,15.00
2023-05-08T00:59:08.873Z,15.00
2023-05-08T01:01:37.674Z,15.00
2023-05-08T01:04:05.435Z,15.00
2023-05-08T01:06:32.343Z,15.00
2023-05-08T01:09:00.173Z,15.10
2023-05-08T01:11:54.621Z,15.00
2023-05-08T01:14:43.425Z,15.10
2023-05-08T01:17:21.949Z,15.10
2023-05-08T01:20:08.191Z,15.20
2023-05-08T01:22:59.593Z,15.10
2023-05-08T01:26:02.352Z,15.10
2023-05-08T01:29:06.319Z,15.20
2023-05-08T01:32:03.776Z,15.20
2023-05-08T01:34:35.418Z,15.10
2023-05-08T01:37:06.493Z,15.10
2023-05-08T01:39:51.052Z,15.00
2023-05-08T01:42:41.960Z,15.00
2023-05-08T01:45:17.098Z,15.00
2023-05-08T01:47:46.330Z,15.00
2023-05-08T01:50:22.103Z,15.00
2023-05-08T01:52:52.996Z,15.00
2023-05-08T01:55:30.563Z,15.10
2023-05-08T01:57:59.515Z,15.00
2023-05-08T02:00:28.495Z,15.10
2023-05-08T02:02:56.904Z,15.10
2023-05-08T02:05:25.577Z,15.10
2023-05-08T02:07:54.669Z,15.20
2023-05-08T02:10:24.950Z,15.20
2023-05-08T02:12:53.692Z,15.10
2023-05-08T02:15:21.896Z,15.10
2023-05-08T02:17:50.492Z,15.10
2023-05-08T02:20:18.501Z,15.10
2023-05-08T02:22:47.350Z,15.20
2023-05-08T02:25:16.144Z,15.20
2023-05-08T02:27:46.460Z,15.10
2023-05-08T02:30:15.502Z,15.20
2023-05-08T02:32:44.490Z,15.30
2023-05-08T02:35:16.572Z,15.30
2023-05-08T02:37:45.827Z,15.30
2023-05-08T02:40:14.744Z,15.20
2023-05-08T02:42:42.360Z,15.10
2023-05-08T02:45:12.109Z,15.10
2023-05-08T02:47:46.133Z,15.10
2023-05-08T02:50:28.182Z,15.00
2023-05-08T02:53:03.725Z,15.00
2023-05-08T02:55:42.968Z,15.10
2023-05-08T02:58:37.158Z,15.10
2023-05-08T03:01:25.908Z,15.10
2023-05-08T03:04:04.547Z,15.00
2023-05-08T03:06:38.524Z,14.90
2023-05-08T03:09:06.697Z,14.90
2023-05-08T03:11:40.990Z,14.90
2023-05-08T03:14:13.094Z,15.00
2023-05-08T03:16:42.914Z,15.00
2023-05-08T03:19:20.817Z,14.90
2023-05-08T03:21:51.441Z,14.90
2023-05-08T03:24:20.328Z,15.00
2023-05-08T03:26:47.739Z,15.00
2023-05-08T03:29:16.548Z,15.00
2023-05-08T03:31:45.007Z,15.10
2023-05-08T03:34:13.493Z,15.10
2023-05-08T03:36:40.670Z,15.10
2023-05-08T03:39:07.699Z,15.10
2023-05-08T03:41:34.876Z,15.10
2023-05-08T03:44:03.452Z,15.10
2023-05-08T03:46:32.806Z,15.10
2023-05-08T03:49:03.279Z,15.10
2023-05-08T03:51:31.668Z,15.10
2023-05-08T03:53:58.873Z,15.10
2023-05-08T03:56:26.236Z,15.10
2023-05-08T03:59:17.536Z,15.10
2023-05-08T04:01:52.680Z,15.10
2023-05-08T04:04:30.321Z,15.00
2023-05-08T04:07:13.849Z,15.00
2023-05-08T04:10:06.301Z,15.00
2023-05-08T04:12:40.058Z,15.00
2023-05-08T04:15:14.361Z,15.00
2023-05-08T04:17:47.700Z,15.00
2023-05-08T04:20:19.771Z,15.00
2023-05-08T04:22:49.000Z,15.00
2023-05-08T04:25:18.377Z,15.00
2023-05-08T04:27:46.538Z,15.10
2023-05-08T04:30:14.511Z,15.10
2023-05-08T04:32:44.839Z,15.10
2023-05-08T04:35:13.960Z,15.10
2023-05-08T04:37:43.440Z,15.00
2023-05-08T04:40:10.840Z,15.00
2023-05-08T04:42:39.521Z,15.00
2023-05-08T04:45:07.125Z,15.00
2023-05-08T04:47:33.964Z,15.00
2023-05-08T04:50:02.698Z,15.00
2023-05-08T04:52:30.736Z,14.90
2023-05-08T04:54:57.462Z,14.80
2023-05-08T04:57:24.212Z,14.70
2023-05-08T04:59:51.544Z,14.70
2023-05-08T05:02:18.505Z,14.80
2023-05-08T05:04:46.672Z,14.90
2023-05-08T05:07:13.977Z,14.90
2023-05-08T05:09:41.003Z,14.90
2023-05-08T05:12:08.153Z,15.00
2023-05-08T05:14:35.531Z,15.10
2023-05-08T05:17:02.339Z,15.10
2023-05-08T05:19:29.431Z,15.10
2023-05-08T05:21:56.310Z,15.00
2023-05-08T05:24:23.158Z,15.00
2023-05-08T05:26:49.827Z,15.00
2023-05-08T05:29:16.934Z,15.10
2023-05-08T05:31:43.856Z,15.00
2023-05-08T05:34:10.916Z,15.10
2023-05-08T05:36:37.678Z,15.10
2023-05-08T05:39:04.604Z,15.00
2023-05-08T05:41:32.826Z,15.10
2023-05-08T05:43:59.511Z,15.20
2023-05-08T05:46:32.194Z,15.20
2023-05-08T05:49:01.202Z,15.20
2023-05-08T05:51:29.284Z,15.20
2023-05-08T05:53:57.133Z,15.20
2023-05-08T05:56:25.552Z,15.20
2023-05-08T05:58:52.549Z,15.20
2023-05-08T06:01:19.535Z,15.40
2023-05-08T06:03:46.693Z,15.40
2023-05-08T06:06:13.595Z,15.30
2023-05-08T06:08:40.343Z,15.30
2023-05-08T06:11:07.075Z,15.40
2023-05-08T06:13:34.021Z,15.30
2023-05-08T06:16:00.892Z,15.30
2023-05-08T06:18:27.690Z,15.30
2023-05-08T06:20:58.483Z,15.20
2023-05-08T06:23:25.870Z,15.30
2023-05-08T06:25:53.272Z,15.30
2023-05-08T06:28:20.211Z,15.30
2023-05-08T06:30:46.927Z,15.30
2023-05-08T06:33:13.678Z,15.40
2023-05-08T06:35:40.478Z,15.50
2023-05-08T06:38:07.125Z,15.40
2023-05-08T06:40:33.878Z,15.50
2023-05-08T06:43:00.675Z,15.60
2023-05-08T06:45:27.408Z,15.70
2023-05-08T06:47:54.213Z,15.70
2023-05-08T06:50:20.998Z,15.80
2023-05-08T06:52:47.618Z,15.70
2023-05-08T06:55:14.663Z,15.60
2023-05-08T06:57:41.460Z,15.40
2023-05-08T07:00:08.803Z,15.50
2023-05-08T07:02:35.911Z,15.20
2023-05-08T07:05:03.287Z,15.30
2023-05-08T07:07:30.235Z,15.30
2023-05-08T07:09:56.871Z,15.20
2023-05-08T07:12:23.692Z,15.30
2023-05-08T07:14:50.343Z,15.30
2023-05-08T07:17:18.254Z,14.90
2023-05-08T07:19:45.155Z,15.00
2023-05-08T07:22:12.039Z,15.10
2023-05-08T07:24:38.704Z,15.20
2023-05-08T07:27:05.433Z,15.10
2023-05-08T07:29:32.046Z,15.30
2023-05-08T07:31:58.754Z,15.30
2023-05-08T07:34:25.461Z,15.30
2023-05-08T07:36:52.166Z,15.30
2023-05-08T07:39:19.117Z,15.10
2023-05-08T07:41:47.125Z,15.20
2023-05-08T07:44:15.137Z,15.20
2023-05-08T07:46:41.869Z,15.10
2023-05-08T07:49:08.738Z,15.20
2023-05-08T07:51:35.753Z,15.20
2023-05-08T07:54:02.435Z,15.10
2023-05-08T07:56:29.212Z,15.10
2023-05-08T07:58:55.867Z,15.20
2023-05-08T08:01:22.514Z,15.10
2023-05-08T08:03:49.275Z,15.20
2023-05-08T08:06:16.057Z,15.30
2023-05-08T08:08:42.779Z,15.50
2023-05-08T08:11:09.809Z,15.20
2023-05-08T08:13:36.511Z,15.30
2023-05-08T08:16:04.131Z,15.40
2023-05-08T08:18:33.776Z,15.20
2023-05-08T08:21:00.468Z,15.50
2023-05-08T08:23:27.297Z,15.10
2023-05-08T08:25:54.312Z,15.50
2023-05-08T08:28:21.081Z,15.90
2023-05-08T08:30:47.864Z,16.00
2023-05-08T08:33:15.836Z,16.20
2023-05-08T08:35:44.192Z,16.40
2023-05-08T08:38:10.859Z,16.50
2023-05-08T08:40:41.594Z,16.60
2023-05-08T08:43:09.406Z,16.50
2023-05-08T08:45:39.435Z,16.60
2023-05-08T08:48:11.511Z,16.60
2023-05-08T08:50:43.833Z,16.80
2023-05-08T08:53:12.468Z,16.90
2023-05-08T08:55:46.763Z,17.00
2023-05-08T08:58:25.432Z,16.90
2023-05-08T09:00:54.587Z,17.00
2023-05-08T09:03:21.633Z,16.70
2023-05-08T09:05:51.791Z,17.00
2023-05-08T09:08:19.147Z,17.30
2023-05-08T09:10:46.946Z,17.20
2023-05-08T09:13:13.749Z,17.40
2023-05-08T09:15:40.791Z,17.50
2023-05-08T09:18:07.648Z,17.20
2023-05-08T09:20:35.127Z,16.80
2023-05-08T09:23:04.998Z,16.70
2023-05-08T09:25:45.510Z,16.80
2023-05-08T09:28:16.374Z,16.90
2023-05-08T09:30:53.869Z,16.80
2023-05-08T09:33:22.073Z,16.70
2023-05-08T09:35:49.111Z,16.50
2023-05-08T09:38:35.876Z,16.50
2023-05-08T09:41:16.384Z,16.30
2023-05-08T09:43:44.192Z,16.10
2023-05-08T09:46:22.769Z,16.40
2023-05-08T09:48:50.590Z,16.30
2023-05-08T09:51:17.861Z,16.10
2023-05-08T09:53:45.365Z,16.40
2023-05-08T09:56:12.267Z,16.20
2023-05-08T09:58:40.652Z,16.50
2023-05-08T10:01:08.867Z,16.60
2023-05-08T10:03:49.067Z,16.80
2023-05-08T10:06:16.781Z,16.90
2023-05-08T10:08:43.974Z,17.00
2023-05-08T10:11:19.298Z,17.50
2023-05-08T10:13:47.253Z,17.50
2023-05-08T10:16:18.574Z,17.70
2023-05-08T10:18:50.073Z,17.60
2023-05-08T10:21:17.729Z,17.80
2023-05-08T10:23:46.999Z,17.80
2023-05-08T10:26:18.494Z,18.10
2023-05-08T10:28:55.854Z,18.50
2023-05-08T10:31:26.001Z,18.50
2023-05-08T10:33:56.609Z,18.20
2023-05-08T10:36:29.621Z,18.20
2023-05-08T10:39:00.524Z,17.90
2023-05-08T10:41:28.238Z,17.80
2023-05-08T10:43:55.753Z,18.20
2023-05-08T10:46:46.307Z,18.10
2023-05-08T10:49:25.205Z,18.60
2023-05-08T10:52:28.042Z,18.70
2023-05-08T10:54:59.030Z,18.60
2023-05-08T10:57:25.732Z,19.30
2023-05-08T10:59:52.699Z,19.80
2023-05-08T11:02:31.508Z,20.30
2023-05-08T11:05:17.398Z,20.30
2023-05-08T11:07:57.707Z,19.70
2023-05-08T11:10:32.075Z,19.40
2023-05-08T11:12:59.905Z,19.70
2023-05-08T11:15:40.667Z,19.80
2023-05-08T11:18:13.797Z,20.10
2023-05-08T11:20:56.325Z,20.10
2023-05-08T11:23:31.675Z,20.50
2023-05-08T11:26:00.198Z,20.00
2023-05-08T11:28:27.328Z,19.90
2023-05-08T11:30:57.584Z,20.40
2023-05-08T11:33:33.732Z,20.60
2023-05-08T11:36:15.636Z,21.00
2023-05-08T11:38:43.836Z,21.30
2023-05-08T11:41:24.027Z,21.60
2023-05-08T11:44:04.449Z,21.60
2023-05-08T11:46:53.806Z,20.60
2023-05-08T11:49:26.907Z,20.00
2023-05-08T11:51:58.444Z,20.70
2023-05-08T11:54:29.180Z,20.20
2023-05-08T11:56:56.157Z,20.20
2023-05-08T11:59:22.928Z,20.00
2023-05-08T12:02:06.784Z,19.70
2023-05-08T12:04:46.355Z,19.70
2023-05-08T12:07:13.606Z,20.30
2023-05-08T12:09:40.453Z,19.90
2023-05-08T12:12:07.336Z,19.80
2023-05-08T12:14:35.072Z,20.40
2023-05-08T12:17:05.306Z,20.50
2023-05-08T12:19:32.145Z,20.90
2023-05-08T12:21:58.890Z,20.90
2023-05-08T12:24:26.687Z,21.00
2023-05-08T12:26:55.564Z,21.10
2023-05-08T12:29:28.600Z,20.90
2023-05-08T12:31:56.070Z,20.40
2023-05-08T12:34:23.070Z,20.00
2023-05-08T12:37:00.986Z,19.80
2023-05-08T12:39:27.940Z,19.50
2023-05-08T12:41:54.650Z,19.70
2023-05-08T12:44:26.364Z,19.30
2023-05-08T12:46:57.694Z,19.30
2023-05-08T12:49:31.876Z,19.20
2023-05-08T12:52:02.906Z,19.20
2023-05-08T12:54:34.074Z,19.10
2023-05-08T12:57:01.266Z,19.50
2023-05-08T12:59:34.311Z,19.40
2023-05-08T13:02:01.220Z,19.30
2023-05-08T13:04:28.182Z,19.10
2023-05-08T13:06:57.931Z,19.50
2023-05-08T13:09:24.771Z,19.30
2023-05-08T13:11:51.487Z,19.40
2023-05-08T13:14:18.128Z,19.50
2023-05-08T13:16:45.965Z,19.60
2023-05-08T13:19:14.081Z,19.80
2023-05-08T13:21:41.003Z,19.90
2023-05-08T13:24:08.077Z,20.20
2023-05-08T13:26:34.792Z,19.90
2023-05-08T13:29:01.446Z,20.00
2023-05-08T13:31:28.157Z,19.80
2023-05-08T13:33:54.913Z,19.70
2023-05-08T13:36:21.798Z,19.40
2023-05-08T13:38:48.726Z,19.10
2023-05-08T13:41:15.426Z,18.60
2023-05-08T13:43:42.439Z,18.70
2023-05-08T13:46:09.182Z,18.80
2023-05-08T13:48:35.956Z,18.90
2023-05-08T13:51:02.716Z,18.90
2023-05-08T13:53:29.562Z,19.10
2023-05-08T13:55:56.351Z,19.40
2023-05-08T13:58:23.338Z,19.10
2023-05-08T14:00:50.237Z,19.10
2023-05-08T14:03:17.063Z,19.20
2023-05-08T14:05:43.765Z,19.10
2023-05-08T14:08:11.341Z,19.40
2023-05-08T14:10:38.788Z,19.50
2023-05-08T14:13:05.516Z,19.40
2023-05-08T14:15:37.464Z,19.10
2023-05-08T14:18:04.829Z,19.30
2023-05-08T14:20:31.572Z,19.00
2023-05-08T14:23:00.055Z,19.00
2023-05-08T14:25:27.019Z,19.60
2023-05-08T14:27:53.717Z,19.70
2023-05-08T14:30:20.597Z,20.10
2023-05-08T14:32:47.282Z,19.70
2023-05-08T14:35:14.555Z,19.20
2023-05-08T14:37:41.391Z,18.70
2023-05-08T14:40:08.773Z,18.60
2023-05-08T14:42:36.434Z,18.50
2023-05-08T14:45:03.470Z,18.40
2023-05-08T14:47:31.488Z,18.80
2023-05-08T14:49:58.847Z,19.10
2023-05-08T14:52:25.629Z,19.10
2023-05-08T14:57:39.749Z,18.90
2023-05-08T15:00:07.564Z,18.90
2023-05-08T15:02:34.425Z,18.40
2023-05-08T15:05:01.516Z,18.40
2023-05-08T15:07:28.907Z,18.50
2023-05-08T15:09:55.564Z,18.60
2023-05-08T15:12:22.355Z,18.70
2023-05-08T15:14:49.267Z,18.80
2023-05-08T15:17:16.034Z,19.10
2023-05-08T15:19:42.784Z,19.40
2023-05-08T15:22:09.516Z,19.50
2023-05-08T15:24:36.202Z,19.90
2023-05-08T15:27:03.240Z,19.80
2023-05-08T15:29:29.973Z,19.80
2023-05-08T15:31:56.713Z,19.40
2023-05-08T15:34:26.368Z,19.70
2023-05-08T15:36:55.932Z,19.80
2023-05-08T15:39:22.722Z,19.70
2023-05-08T15:41:49.477Z,20.10
2023-05-08T15:44:18.975Z,20.30
2023-05-08T15:46:45.664Z,20.20
2023-05-08T15:49:12.410Z,20.00
2023-05-08T15:51:39.146Z,20.00
2023-05-08T15:54:05.904Z,19.90
2023-05-08T15:56:34.160Z,20.00
2023-05-08T15:59:00.891Z,20.00
2023-05-08T16:01:27.595Z,19.60
2023-05-08T16:03:54.357Z,19.50
2023-05-08T16:06:21.132Z,19.60
2023-05-08T16:08:47.786Z,19.40
2023-05-08T16:11:14.491Z,19.30
2023-05-08T16:13:41.204Z,19.20
2023-05-08T16:16:08.233Z,19.00
2023-05-08T16:18:35.116Z,18.80
2023-05-08T16:21:01.841Z,18.60
2023-05-08T16:23:28.617Z,18.90
2023-05-08T16:25:55.285Z,19.10
2023-05-08T16:28:21.984Z,19.10
2023-05-08T16:30:48.661Z,19.20
2023-05-08T16:33:15.435Z,19.20
2023-05-08T16:35:42.315Z,19.10
2023-05-08T16:38:09.109Z,19.10
2023-05-08T16:40:35.890Z,19.10
2023-05-08T16:43:02.618Z,19.00
2023-05-08T16:45:29.308Z,19.10
2023-05-08T16:47:56.182Z,18.90
2023-05-08T16:50:22.946Z,18.70
2023-05-08T16:52:49.665Z,18.40
2023-05-08T16:55:16.519Z,18.20
2023-05-08T16:57:43.372Z,18.20
2023-05-08T17:00:10.612Z,18.20
2023-05-08T17:02:37.451Z,18.10
2023-05-08T17:05:04.531Z,18.30
2023-05-08T17:07:31.493Z,18.30
2023-05-08T17:09:58.335Z,18.40
2023-05-08T17:12:25.344Z,18.30
2023-05-08T17:14:51.998Z,18.30
2023-05-08T17:17:18.793Z,18.40
2023-05-08T17:19:45.566Z,18.40
2023-05-08T17:22:13.057Z,18.50
2023-05-08T17:24:39.859Z,18.30
2023-05-08T17:27:07.140Z,18.20
2023-05-08T17:29:34.517Z,18.20
2023-05-08T17:32:01.393Z,18.20
2023-05-08T17:34:28.301Z,18.00
2023-05-08T17:36:55.387Z,18.00
2023-05-08T17:39:22.663Z,18.00
2023-05-08T17:41:49.632Z,17.90
2023-05-08T17:44:17.142Z,17.70
2023-05-08T17:46:44.251Z,17.60
2023-05-08T17:49:11.471Z,17.60
2023-05-08T17:51:38.242Z,17.50
2023-05-08T17:54:04.971Z,17.40
2023-05-08T17:56:31.949Z,17.40
2023-05-08T17:58:58.694Z,17.40
2023-05-08T18:01:26.244Z,17.40
2023-05-08T18:03:53.506Z,17.30
2023-05-08T18:06:20.693Z,17.20
2023-05-08T18:08:48.189Z,17.20
2023-05-08T18:11:23.431Z,17.00
2023-05-08T18:13:51.708Z,17.00
2023-05-08T18:16:20.896Z,17.00
2023-05-08T18:18:48.259Z,17.10
2023-05-08T18:21:15.127Z,17.10
2023-05-08T18:23:41.908Z,16.80
2023-05-08T18:26:12.995Z,16.90
2023-05-08T18:28:39.692Z,17.00
2023-05-08T18:31:06.400Z,16.80
2023-05-08T18:33:33.161Z,16.90
2023-05-08T18:35:59.898Z,16.80
2023-05-08T18:38:26.599Z,16.80
2023-05-08T18:40:53.323Z,16.80
2023-05-08T18:43:20.018Z,16.60
2023-05-08T18:45:46.721Z,16.40
2023-05-08T18:48:13.532Z,16.40
2023-05-08T18:50:40.221Z,16.30
2023-05-08T18:53:06.890Z,16.20
2023-05-08T18:55:33.601Z,16.30
2023-05-08T18:58:00.322Z,16.30
2023-05-08T19:00:27.094Z,16.40
2023-05-08T19:02:53.883Z,16.50
2023-05-08T19:05:20.806Z,16.60
2023-05-08T19:07:47.574Z,16.50
2023-05-08T19:10:14.593Z,16.50
2023-05-08T19:12:41.842Z,16.50
2023-05-08T19:15:09.530Z,16.40
2023-05-08T19:17:36.856Z,16.50
2023-05-08T19:20:04.318Z,16.40
2023-05-08T19:22:32.834Z,16.30
2023-05-08T19:25:00.569Z,16.30
2023-05-08T19:27:28.963Z,16.30
2023-05-08T19:29:55.944Z,16.20
2023-05-08T19:32:22.691Z,16.10
2023-05-08T19:34:49.636Z,16.00
2023-05-08T19:37:16.464Z,16.00
2023-05-08T19:39:43.318Z,16.00
2023-05-08T19:42:11.422Z,15.90
2023-05-08T19:44:38.378Z,15.90
2023-05-08T19:47:05.482Z,15.80
2023-05-08T19:49:32.431Z,15.80
2023-05-08T19:51:59.149Z,15.80
2023-05-08T19:54:26.117Z,15.70
2023-05-08T19:56:52.888Z,15.70
2023-05-08T19:59:19.560Z,15.60
2023-05-08T20:01:46.350Z,15.60
2023-05-08T20:04:13.333Z,15.60
2023-05-08T20:06:40.227Z,15.50
2023-05-08T20:09:07.070Z,15.50
2023-05-08T20:11:33.795Z,15.50
2023-05-08T20:14:00.749Z,15.40
2023-05-08T20:16:27.456Z,15.40
2023-05-08T20:18:54.275Z,15.40
2023-05-08T20:21:21.343Z,15.30
2023-05-08T20:23:48.290Z,15.20
2023-05-08T20:26:14.958Z,15.10
2023-05-08T20:28:41.672Z,15.00
2023-05-08T20:31:08.477Z,15.00
2023-05-08T20:33:35.281Z,15.00
2023-05-08T20:36:02.140Z,15.00
2023-05-08T20:38:28.879Z,15.00
2023-05-08T20:40:59.378Z,15.00
2023-05-08T20:43:28.031Z,15.00
2023-05-08T20:45:54.839Z,15.00
2023-05-08T20:48:21.653Z,14.90
2023-05-08T20:50:48.600Z,14.90
2023-05-08T20:53:15.425Z,15.00
2023-05-08T20:55:42.169Z,14.90
2023-05-08T20:58:09.073Z,14.90
2023-05-08T21:00:36.119Z,14.80
2023-05-08T21:03:03.371Z,14.80
2023-05-08T21:05:30.211Z,14.80
2023-05-08T21:08:02.215Z,14.70
2023-05-08T21:10:31.251Z,14.70
2023-05-08T21:12:58.104Z,14.60
2023-05-08T21:15:25.025Z,14.60
2023-05-08T21:17:51.809Z,14.60
2023-05-08T21:20:19.790Z,14.60
2023-05-08T21:22:46.535Z,14.60
2023-05-08T21:25:16.594Z,14.70
2023-05-08T21:27:43.805Z,14.70
2023-05-08T21:30:15.181Z,14.80
2023-05-08T21:32:43.818Z,14.80
2023-05-08T21:35:11.920Z,14.80
2023-05-08T21:37:39.207Z,14.80
2023-05-08T21:40:06.571Z,14.70
2023-05-08T21:42:33.460Z,14.70
2023-05-08T21:45:00.297Z,14.70
2023-05-08T21:47:29.839Z,14.60
2023-05-08T21:49:57.249Z,14.60
2023-05-08T21:52:25.642Z,14.50
2023-05-08T21:54:52.869Z,14.50
2023-05-08T21:57:19.607Z,14.40
2023-05-08T21:59:46.427Z,14.50
2023-05-08T22:02:13.207Z,14.40
2023-05-08T22:04:39.902Z,14.30
2023-05-08T22:07:06.609Z,14.30
2023-05-08T22:09:34.699Z,14.30
2023-05-08T22:12:01.497Z,14.20
2023-05-08T22:14:28.227Z,14.20
2023-05-08T22:16:54.989Z,14.10
2023-05-08T22:19:21.799Z,14.10
2023-05-08T22:21:48.501Z,14.00
2023-05-08T22:24:15.312Z,14.00
2023-05-08T22:26:41.990Z,14.00
2023-05-08T22:29:08.733Z,14.00
2023-05-08T22:31:35.827Z,14.00
2023-05-08T22:34:02.955Z,13.90
2023-05-08T22:36:29.609Z,13.90
2023-05-08T22:38:56.356Z,13.90
2023-05-08T22:41:23.650Z,14.00
2023-05-08T22:43:50.469Z,14.00
2023-05-08T22:46:18.293Z,14.00
2023-05-08T22:48:45.719Z,13.90
2023-05-08T22:51:12.489Z,13.90
2023-05-08T22:53:39.289Z,14.00
2023-05-08T22:56:06.057Z,14.00
2023-05-08T22:58:32.776Z,14.00
2023-05-08T23:00:59.689Z,14.00
2023-05-08T23:03:26.488Z,14.00
2023-05-08T23:05:53.270Z,13.90
2023-05-08T23:08:22.130Z,13.80
2023-05-08T23:10:49.232Z,13.80
2023-05-08T23:13:15.993Z,13.80
2023-05-08T23:15:43.043Z,13.80
2023-05-08T23:18:09.819Z,13.80
2023-05-08T23:20:36.588Z,13.80
2023-05-08T23:23:03.262Z,13.80
2023-05-08T23:25:30.006Z,13.90
2023-05-08T23:27:56.679Z,13.90
2023-05-08T23:30:23.354Z,13.90
2023-05-08T23:32:50.236Z,13.80
2023-05-08T23:35:17.296Z,13.80
2023-05-08T23:37:43.999Z,13.80
2023-05-08T23:40:11.152Z,13.80
2023-05-08T23:42:37.949Z,13.80
2023-05-08T23:45:05.126Z,13.80
2023-05-08T23:47:32.106Z,13.80
2023-05-08T23:49:58.860Z,13.80
2023-05-08T23:52:25.644Z,13.70
2023-05-08T23:54:52.467Z,13.80
2023-05-08T23:57:19.191Z,13.90
2023-05-08T23:59:45.820Z,13.80
